Thunderstorms From: 25-05-2018 23:09 Until: 26-05-2018 15:00 warning for: Thunderstorms Level: Yellow info button

Although rather usual in this region, locally or potentially dangerous phenomena are expected. (such as local winds, summer thunderstorms, rising streams or high waves) Be aware and pay attention to the latest weather updates, especially if you carry out activities exposed to weather or close to a stream or shoreline. 


Meteo18 Weather Cam more information Meteo18 Weather Cam


warning for Thunderstorms more information blitzortung!


Rain radar more information rain snow radar


Visit our other weather sites:

Template documentation
and downloads

And another site



Weather Underground History page Text

Daily Summary for May 25, 2017 Units:  Metric    English   Both
« Previous Day
Next Day »
Daily Weekly Monthly Yearly Custom
  High: Low: Average:
Temperature: -17.8 °C -10.2 °C -6.7 °C
Dew Point: -17.8 °C -11.1 °C -10.1 °C
Humidity: Humidity % 49 % 70 %
Wind Speed: 0 km/h 0 km/h 15.3 km/h
Wind Gust: 0 km/h - -
Wind:- - ENE
Pressure: 0 hPa 34462.7 hPa -
Precipitation: 0 mm    
Historical Graphs
 
 
Tabular Data for May 25, 2017
Time Temperature Dew Point Pressure Wind Wind Speed Wind Gust Humidity Rainfall Rate (Hourly)
-17.8 °C -17.8 °C 0 hPa Calm     Humidity % 0 mm
00:02 -8.5 °C -9.9 °C 34659.1 hPa Calm   20.8 km/h 85 % 0 mm
00:12 -8.5 °C -9.9 °C 34645.6 hPa NE 7.7 km/h 18.2 km/h 85 % 0 mm
00:17 -8.4 °C -9.8 °C 34645.6 hPa Calm   18.2 km/h 85 % 0 mm
00:22 -8.4 °C -9.8 °C 34645.6 hPa NE 7.7 km/h 18.2 km/h 85 % 0 mm
00:32 -8.4 °C -9.8 °C 34645.6 hPa NW 15.6 km/h 20.8 km/h 85 % 0 mm
00:37 -8.4 °C -9.8 °C 34645.6 hPa NNW 5.1 km/h 20.8 km/h 85 % 0 mm
00:42 -8.5 °C -9.9 °C 34645.6 hPa North 2.6 km/h 20.8 km/h 85 % 0 mm
00:47 -8.5 °C -9.9 °C 34645.6 hPa NNW 7.7 km/h 20.8 km/h 85 % 0 mm
00:52 -8.6 °C -9.9 °C 34645.6 hPa NE 2.6 km/h 20.8 km/h 85 % 0 mm
00:57 -8.6 °C -9.9 °C 34645.6 hPa NNW 5.1 km/h 20.8 km/h 86 % 0 mm
01:02 -8.7 °C -10.1 °C 34645.6 hPa NNE 5.1 km/h 20.8 km/h 85 % 0 mm
01:12 -8.7 °C -10 °C 34645.6 hPa NNE 10.3 km/h 20.8 km/h 86 % 0 mm
01:17 -8.7 °C -10.1 °C 34645.6 hPa NE 5.1 km/h 18.2 km/h 85 % 0 mm
01:22 -8.6 °C -10 °C 34645.6 hPa North 10.3 km/h 18.2 km/h 85 % 0 mm
01:27 -8.6 °C -9.9 °C 34645.6 hPa NNE 12.9 km/h 28.5 km/h 85 % 0 mm
01:32 -8.5 °C -10 °C 34645.6 hPa NE 18.2 km/h 28.5 km/h 84 % 0 mm
01:37 -8.4 °C -10.1 °C 34645.6 hPa NNE 12.9 km/h 28.5 km/h 83 % 0 mm
01:42 -8.4 °C -10.1 °C 34645.6 hPa NE 12.9 km/h 28.5 km/h 83 % 0 mm
01:47 -8.4 °C -10.1 °C 34635.4 hPa NE 18.2 km/h 23.3 km/h 83 % 0 mm
01:52 -8.4 °C -10.2 °C 34635.4 hPa NE 15.6 km/h 23.3 km/h 82 % 0 mm
02:02 -8.6 °C -10.2 °C 34635.4 hPa NE 7.7 km/h 28.5 km/h 83 % 0 mm
02:12 -8.7 °C -10.3 °C 34635.4 hPa NE 12.9 km/h 20.8 km/h 83 % 0 mm
02:17 -8.7 °C -10.3 °C 34635.4 hPa NE 12.9 km/h 18.2 km/h 83 % 0 mm
02:22 -8.7 °C -10.3 °C 34635.4 hPa ENE 10.3 km/h 18.2 km/h 83 % 0 mm
02:32 -8.8 °C -10.4 °C 34635.4 hPa NE 7.7 km/h 20.8 km/h 83 % 0 mm
02:37 -8.9 °C -10.4 °C 34635.4 hPa NE 10.3 km/h 18.2 km/h 84 % 0 mm
02:42 -9 °C -10.4 °C 34625.2 hPa NE 7.7 km/h 18.2 km/h 85 % 0 mm
02:47 -9.1 °C -10.4 °C 34625.2 hPa NE 5.1 km/h 15.6 km/h 85 % 0 mm
02:52 -9.1 °C -10.4 °C 34625.2 hPa NE 5.1 km/h 15.6 km/h 85 % 0 mm
02:57 -9.1 °C -10.4 °C 34625.2 hPa NNE 7.7 km/h 12.9 km/h 85 % 0 mm
03:02 -9.1 °C -10.5 °C 34625.2 hPa NE 10.3 km/h 12.9 km/h 85 % 0 mm
03:12 -9.2 °C -10.6 °C 34611.7 hPa NNE 5.1 km/h 12.9 km/h 85 % 0 mm
03:17 -9.3 °C -10.7 °C 34611.7 hPa NNE 5.1 km/h 12.9 km/h 85 % 0 mm
03:22 -9.4 °C -10.7 °C 34611.7 hPa North 2.6 km/h 12.9 km/h 86 % 0 mm
03:32 -9.6 °C -10.7 °C 34611.7 hPa North 7.7 km/h 7.7 km/h 87 % 0 mm
03:37 -9.6 °C -10.7 °C 34611.7 hPa NNE 7.7 km/h 12.9 km/h 87 % 0 mm
03:42 -9.6 °C -10.8 °C 34611.7 hPa NNE 7.7 km/h 12.9 km/h 87 % 0 mm
03:47 -9.7 °C -10.8 °C 34611.7 hPa North 5.1 km/h 15.6 km/h 87 % 0 mm
03:52 -9.7 °C -10.8 °C 34611.7 hPa NE 7.7 km/h 15.6 km/h 88 % 0 mm
03:57 -9.7 °C -10.8 °C 34611.7 hPa North 5.1 km/h 12.9 km/h 88 % 0 mm
04:02 -9.8 °C -10.9 °C 34611.7 hPa NNE 7.7 km/h 12.9 km/h 88 % 0 mm
04:12 -9.8 °C -10.9 °C 34611.7 hPa NE 7.7 km/h 12.9 km/h 88 % 0 mm
04:17 -9.8 °C -10.9 °C 34611.7 hPa NNE 10.3 km/h 20.8 km/h 88 % 0 mm
04:22 -9.8 °C -10.8 °C 34611.7 hPa NE 12.9 km/h 20.8 km/h 89 % 0 mm
04:27 -9.8 °C -10.9 °C 34611.7 hPa NNW 12.9 km/h 15.6 km/h 88 % 0 mm
04:32 -9.8 °C -10.9 °C 34611.7 hPa NNE 5.1 km/h 15.6 km/h 88 % 0 mm
04:37 -9.9 °C -11 °C 34601.5 hPa North 5.1 km/h 18.2 km/h 88 % 0 mm
04:42 -9.9 °C -10.9 °C 34601.5 hPa NNE 12.9 km/h 18.2 km/h 89 % 0 mm
04:47 -9.9 °C -10.9 °C 34601.5 hPa NNE 5.1 km/h 18.2 km/h 89 % 0 mm
04:52 -9.9 °C -10.9 °C 34601.5 hPa Calm   18.2 km/h 89 % 0 mm
05:02 -9.9 °C -10.9 °C 34601.5 hPa North 7.7 km/h 15.6 km/h 89 % 0 mm
05:12 -10.1 °C -10.9 °C 34601.5 hPa NNE 7.7 km/h 18.2 km/h 90 % 0 mm
05:17 -9.9 °C -10.8 °C 34601.5 hPa NNE 5.1 km/h 18.2 km/h 90 % 0 mm
05:22 -9.9 °C -10.9 °C 34601.5 hPa NNE 7.7 km/h 18.2 km/h 89 % 0 mm
05:32 -9.9 °C -10.9 °C 34601.5 hPa Calm   12.9 km/h 89 % 0 mm
05:42 -10.1 °C -11.1 °C 34601.5 hPa NNE 2.6 km/h 10.3 km/h 89 % 0 mm
05:47 -10.1 °C -11 °C 34601.5 hPa NNE 2.6 km/h 10.3 km/h 90 % 0 mm
05:52 -10.1 °C -11 °C 34591.4 hPa North 2.6 km/h 10.3 km/h 90 % 0 mm
06:02 -10.2 °C -11.1 °C 34591.4 hPa NE 2.6 km/h 7.7 km/h 90 % 0 mm
06:12 -10.2 °C -11 °C 34591.4 hPa NE 10.3 km/h 10.3 km/h 91 % 0 mm
06:17 -10.2 °C -10.9 °C 34601.5 hPa NNE 7.7 km/h 10.3 km/h 91 % 0 mm
06:22 -10.2 °C -11.1 °C 34601.5 hPa NNE 12.9 km/h 12.9 km/h 90 % 0 mm
06:32 -10.1 °C -10.9 °C 34601.5 hPa NNE 10.3 km/h 15.6 km/h 90 % 0 mm
06:37 -9.9 °C -10.8 °C 34601.5 hPa NNE 12.9 km/h 15.6 km/h 90 % 0 mm
06:42 -9.7 °C -10.7 °C 34601.5 hPa North 10.3 km/h 15.6 km/h 89 % 0 mm
06:52 -9.5 °C -10.6 °C 34601.5 hPa NE 10.3 km/h 15.6 km/h 88 % 0 mm
06:57 -9.4 °C -10.5 °C 34601.5 hPa NE 12.9 km/h 25.9 km/h 88 % 0 mm
07:02 -9.3 °C -10.5 °C 34601.5 hPa NE 15.6 km/h 25.9 km/h 87 % 0 mm
07:07 -9.2 °C -10.4 °C 34601.5 hPa NE 10.3 km/h 25.9 km/h 87 % 0 mm
07:12 -9.2 °C -10.4 °C 34601.5 hPa NE 18.2 km/h 25.9 km/h 87 % 0 mm
07:17 -9.1 °C -10.3 °C 34601.5 hPa NNE 15.6 km/h 25.9 km/h 87 % 0 mm
07:22 -9.1 °C -10.3 °C 34601.5 hPa NNE 18.2 km/h 28.5 km/h 86 % 0 mm
07:32 -8.9 °C -10.2 °C 34611.7 hPa NE 12.9 km/h 28.5 km/h 86 % 0 mm
07:37 -8.8 °C -10.2 °C 34611.7 hPa North 12.9 km/h 28.5 km/h 85 % 0 mm
07:42 -8.8 °C -10.2 °C 34611.7 hPa NNE 18.2 km/h 33.6 km/h 85 % 0 mm
07:52 -8.7 °C -10.1 °C 34611.7 hPa NE 18.2 km/h 25.9 km/h 85 % 0 mm
07:57 -8.7 °C -10.2 °C 34611.7 hPa NE 18.2 km/h 25.9 km/h 84 % 0 mm
08:02 -8.7 °C -10.2 °C 34611.7 hPa ENE 15.6 km/h 28.5 km/h 84 % 0 mm
08:12 -8.7 °C -10.2 °C 34611.7 hPa ENE 15.6 km/h 28.5 km/h 84 % 0 mm
08:17 -8.6 °C -10.2 °C 34611.7 hPa NE 5.1 km/h 28.5 km/h 83 % 0 mm
08:22 -8.5 °C -10.1 °C 34611.7 hPa NE 10.3 km/h 25.9 km/h 83 % 0 mm
08:32 -8.3 °C -10.1 °C 34611.7 hPa East 15.6 km/h 25.9 km/h 82 % 0 mm
08:37 -8.3 °C -10.1 °C 34611.7 hPa NE 15.6 km/h 25.9 km/h 81 % 0 mm
08:42 -8.2 °C -9.9 °C 34611.7 hPa ENE 18.2 km/h 28.5 km/h 82 % 0 mm
08:52 -8 °C -9.8 °C 34611.7 hPa ENE 12.9 km/h 28.5 km/h 81 % 0 mm
08:57 -7.9 °C -9.9 °C 34611.7 hPa ENE 5.1 km/h 28.5 km/h 80 % 0 mm
09:02 -7.8 °C -9.8 °C 34611.7 hPa ENE 10.3 km/h 28.5 km/h 80 % 0 mm
09:07 -7.7 °C -9.7 °C 34611.7 hPa ENE 10.3 km/h 28.5 km/h 79 % 0 mm
09:12 -7.6 °C -9.8 °C 34611.7 hPa NNE 10.3 km/h 23.3 km/h 78 % 0 mm
09:17 -7.6 °C -9.7 °C 34611.7 hPa ENE 7.7 km/h 23.3 km/h 78 % 0 mm
09:22 -7.4 °C -9.6 °C 34611.7 hPa NNE 12.9 km/h 25.9 km/h 78 % 0 mm
09:32 -7.3 °C -9.7 °C 34611.7 hPa NE 20.8 km/h 31.1 km/h 76 % 0 mm
09:42 -7.1 °C -9.6 °C 34611.7 hPa ENE 15.6 km/h 31.1 km/h 75 % 0 mm
09:47 -7 °C -9.5 °C 34611.7 hPa NE 12.9 km/h 31.1 km/h 75 % 0 mm
09:52 -6.9 °C -9.6 °C 34611.7 hPa NE 12.9 km/h 31.1 km/h 74 % 0 mm
10:02 -6.7 °C -9.6 °C 34611.7 hPa ENE 12.9 km/h 28.5 km/h 72 % 0 mm
10:12 -6.6 °C -9.4 °C 34611.7 hPa NE 7.7 km/h 31.1 km/h 72 % 0 mm
10:17 -6.6 °C -9.6 °C 34611.7 hPa NNE 12.9 km/h 31.1 km/h 71 % 0 mm
10:22 -6.4 °C -9.6 °C 34611.7 hPa NE 7.7 km/h 31.1 km/h 70 % 0 mm
10:27 -6.4 °C -9.4 °C 34611.7 hPa NNE 25.9 km/h 31.1 km/h 71 % 0 mm
10:32 -6.3 °C -9.3 °C 34601.5 hPa NE 23.3 km/h 31.1 km/h 71 % 0 mm
10:42 -6.2 °C -9.5 °C 34601.5 hPa East 18.2 km/h 36.2 km/h 69 % 0 mm
10:52 -6.1 °C -9.4 °C 34601.5 hPa NE 15.6 km/h 31.1 km/h 68 % 0 mm
10:57 -6.1 °C -9.6 °C 34601.5 hPa East 12.9 km/h 31.1 km/h 67 % 0 mm
11:02 -5.9 °C -9.2 °C 34601.5 hPa NE 18.2 km/h 36.2 km/h 69 % 0 mm
11:12 -5.7 °C -9.7 °C 34601.5 hPa ENE 18.2 km/h 36.2 km/h 64 % 0 mm
11:17 -5.7 °C -9.8 °C 34591.4 hPa NNW 20.8 km/h 36.2 km/h 63 % 0 mm
11:22 -5.7 °C -10.1 °C 34591.4 hPa ENE 31.1 km/h 36.2 km/h 61 % 0 mm
11:32 -5.5 °C -10.2 °C 34591.4 hPa NE 36.2 km/h 46.7 km/h 59 % 0 mm
11:42 -5.3 °C -10.3 °C 34591.4 hPa ENE 25.9 km/h 46.7 km/h 57 % 0 mm
11:47 -5.3 °C -10.4 °C 34591.4 hPa ENE 23.3 km/h 46.7 km/h 56 % 0 mm
11:52 -5.3 °C -9.9 °C 34591.4 hPa NNE 31.1 km/h 49.2 km/h 59 % 0 mm
11:57 -5.2 °C -10.3 °C 34591.4 hPa ENE 28.5 km/h 49.2 km/h 56 % 0 mm
12:02 -5.2 °C -9.9 °C 34591.4 hPa ENE 23.3 km/h 49.2 km/h 59 % 0 mm
12:12 -5.2 °C -9.7 °C 34591.4 hPa NE 15.6 km/h 46.7 km/h 60 % 0 mm
12:17 -5.1 °C -9.6 °C 34591.4 hPa NE 25.9 km/h 46.7 km/h 60 % 0 mm
12:22 -5 °C -9.6 °C 34591.4 hPa NNE 36.2 km/h 44.1 km/h 60 % 0 mm
12:32 -5.1 °C -9.6 °C 34591.4 hPa NE 20.8 km/h 44.1 km/h 60 % 0 mm
12:42 -4.9 °C -9.8 °C 34577.8 hPa NE 28.5 km/h 46.7 km/h 58 % 0 mm
12:47 -4.9 °C -9.9 °C 34577.8 hPa ENE 38.8 km/h 46.7 km/h 57 % 0 mm
12:52 -4.8 °C -9.6 °C 34577.8 hPa NE 12.9 km/h 49.2 km/h 59 % 0 mm
13:02 -4.8 °C -10 °C 34577.8 hPa NE 25.9 km/h 49.2 km/h 56 % 0 mm
13:07 -4.8 °C -9.8 °C 34577.8 hPa East 20.8 km/h 38.8 km/h 57 % 0 mm
13:17 -4.7 °C -9.8 °C 34567.7 hPa ENE 36.2 km/h 38.8 km/h 56 % 0 mm
13:22 -4.6 °C -9.6 °C 34567.7 hPa ENE 15.6 km/h 44.1 km/h 57 % 0 mm
13:32 -4.6 °C -9.8 °C 34567.7 hPa NE 28.5 km/h 44.1 km/h 56 % 0 mm
13:37 -4.6 °C -9.9 °C 34567.7 hPa NNE 20.8 km/h 44.1 km/h 55 % 0 mm
13:42 -4.5 °C -9.7 °C 34567.7 hPa NE 20.8 km/h 44.1 km/h 56 % 0 mm
13:52 -4.6 °C -9.3 °C 34567.7 hPa NNE 23.3 km/h 41.4 km/h 59 % 0 mm
13:57 -4.5 °C -9.7 °C 34554.1 hPa NNE 23.3 km/h 49.2 km/h 56 % 0 mm
14:02 -4.5 °C -9.7 °C 34554.1 hPa East 31.1 km/h 49.2 km/h 56 % 0 mm
14:12 -4.2 °C -9.9 °C 34554.1 hPa NNE 25.9 km/h 49.2 km/h 53 % 0 mm
14:17 -4.3 °C -10.1 °C 34554.1 hPa NNE 25.9 km/h 44.1 km/h 52 % 0 mm
14:22 -4.2 °C -9.7 °C 34544 hPa NNE 15.6 km/h 44.1 km/h 54 % 0 mm
14:32 -4.1 °C -9.6 °C 34544 hPa NE 23.3 km/h 44.1 km/h 54 % 0 mm
14:37 -4.1 °C -9.4 °C 34544 hPa NE 36.2 km/h 44.1 km/h 55 % 0 mm
14:42 -4.1 °C -9.9 °C 34544 hPa ESE 20.8 km/h 44.1 km/h 52 % 0 mm
14:52 -4 °C -9.7 °C 34544 hPa NNE 46.7 km/h 46.7 km/h 53 % 0 mm
14:57 -4.1 °C -9.9 °C 34533.8 hPa NNE 15.6 km/h 54.4 km/h 52 % 0 mm
15:02 -4.1 °C -9.9 °C 34533.8 hPa ENE 15.6 km/h 54.4 km/h 52 % 0 mm
15:12 -4 °C -9.7 °C 34533.8 hPa NE 18.2 km/h 54.4 km/h 53 % 0 mm
15:17 -4 °C -9.8 °C 34533.8 hPa NE 23.3 km/h 46.7 km/h 52 % 0 mm
15:22 -3.9 °C -9.8 °C 34533.8 hPa ENE 25.9 km/h 46.7 km/h 52 % 0 mm
15:27 -3.8 °C -9.8 °C 34520.3 hPa NNE 28.5 km/h 49.2 km/h 51 % 0 mm
15:32 -3.8 °C -9.7 °C 34520.3 hPa East 18.2 km/h 49.2 km/h 52 % 0 mm
15:37 -3.8 °C -9.8 °C 34533.8 hPa NE 44.1 km/h 49.2 km/h 51 % 0 mm
15:42 -3.7 °C -9.8 °C 34520.3 hPa NE 12.9 km/h 49.2 km/h 51 % 0 mm
15:52 -3.6 °C -9.6 °C 34520.3 hPa ENE 18.2 km/h 49.2 km/h 51 % 0 mm
15:57 -3.5 °C -9.1 °C 34520.3 hPa ENE 10.3 km/h 46.7 km/h 54 % 0 mm
16:02 -3.5 °C -9.9 °C 34520.3 hPa ENE 28.5 km/h 46.7 km/h 49 % 0 mm
16:12 -3.5 °C -9.2 °C 34510.1 hPa NE 25.9 km/h 46.7 km/h 53 % 0 mm
16:17 -3.4 °C -9.5 °C 34510.1 hPa NE 23.3 km/h 41.4 km/h 51 % 0 mm
16:22 -3.4 °C -9 °C 34510.1 hPa NNE 20.8 km/h 41.4 km/h 54 % 0 mm
16:32 -3.7 °C -8.9 °C 34496.6 hPa North 10.3 km/h 41.4 km/h 56 % 0 mm
16:37 -3.7 °C -9.3 °C 34496.6 hPa NNE 23.3 km/h 46.7 km/h 54 % 0 mm
16:42 -3.7 °C -9.1 °C 34496.6 hPa ENE 18.2 km/h 46.7 km/h 55 % 0 mm
16:47 -3.6 °C -8.9 °C 34496.6 hPa NE 25.9 km/h 44.1 km/h 55 % 0 mm
16:52 -3.7 °C -9.1 °C 34496.6 hPa NE 15.6 km/h 44.1 km/h 55 % 0 mm
16:57 -3.7 °C -9.1 °C 34496.6 hPa NE 33.6 km/h 49.2 km/h 55 % 0 mm
17:02 -3.7 °C -8.7 °C 34496.6 hPa NNE 31.1 km/h 49.2 km/h 57 % 0 mm
17:12 -3.7 °C -9.2 °C 34496.6 hPa NE 38.8 km/h 46.7 km/h 54 % 0 mm
17:17 -3.6 °C -9.1 °C 34496.6 hPa NE 23.3 km/h 46.7 km/h 54 % 0 mm
17:22 -3.6 °C -8.9 °C 34496.6 hPa NNE 7.7 km/h 44.1 km/h 55 % 0 mm
17:27 -3.6 °C -9.1 °C 34496.6 hPa NNE 25.9 km/h 44.1 km/h 54 % 0 mm
17:32 -3.6 °C -9.1 °C 34496.6 hPa ENE 15.6 km/h 44.1 km/h 54 % 0 mm
17:37 -3.6 °C -9.1 °C 34486.4 hPa NE 15.6 km/h 41.4 km/h 54 % 0 mm
17:42 -3.5 °C -8.9 °C 34486.4 hPa NE 31.1 km/h 41.4 km/h 55 % 0 mm
17:47 -3.6 °C -8.9 °C 34486.4 hPa NNE 23.3 km/h 41.4 km/h 55 % 0 mm
17:52 -3.6 °C -9.1 °C 34486.4 hPa East 15.6 km/h 41.4 km/h 54 % 0 mm
17:57 -3.5 °C -8.9 °C 34486.4 hPa North 23.3 km/h 41.4 km/h 55 % 0 mm
18:02 -3.6 °C -8.9 °C 34486.4 hPa NNE 20.8 km/h 41.4 km/h 55 % 0 mm
18:12 -3.7 °C -9.1 °C 34476.3 hPa NNE 20.8 km/h 38.8 km/h 55 % 0 mm
18:17 -3.7 °C -8.9 °C 34486.4 hPa NE 18.2 km/h 46.7 km/h 56 % 0 mm
18:22 -3.6 °C -8.8 °C 34486.4 hPa East 25.9 km/h 44.1 km/h 56 % 0 mm
18:32 -3.7 °C -8.9 °C 34476.3 hPa NE 18.2 km/h 44.1 km/h 56 % 0 mm
18:42 -3.7 °C -8.9 °C 34476.3 hPa East 15.6 km/h 38.8 km/h 56 % 0 mm
18:47 -3.6 °C -9 °C 34476.3 hPa ENE 15.6 km/h 38.8 km/h 55 % 0 mm
19:02 -3.7 °C -9.1 °C 34462.7 hPa NNE 20.8 km/h 41.4 km/h 55 % 0 mm
19:12 -3.8 °C -8.8 °C 34462.7 hPa NNE 18.2 km/h 38.8 km/h 57 % 0 mm
19:17 -3.8 °C -8.9 °C 34462.7 hPa NE 20.8 km/h 38.8 km/h 57 % 0 mm
19:22 -3.9 °C -8.9 °C 34462.7 hPa NE 23.3 km/h 38.8 km/h 57 % 0 mm
19:32 -4 °C -9.1 °C 34462.7 hPa NE 12.9 km/h 38.8 km/h 57 % 0 mm
19:42 -4.1 °C -9.4 °C 34462.7 hPa NNE 31.1 km/h 38.8 km/h 55 % 0 mm
19:47 -4.1 °C -9.3 °C 34462.7 hPa NNW 23.3 km/h 46.7 km/h 56 % 0 mm
19:52 -4.1 °C -9.4 °C 34462.7 hPa NE 20.8 km/h 46.7 km/h 55 % 0 mm
20:02 -4.2 °C -9.4 °C 34462.7 hPa NNE 18.2 km/h 41.4 km/h 56 % 0 mm
20:12 -4.4 °C -9.6 °C 34462.7 hPa NE 15.6 km/h 41.4 km/h 56 % 0 mm
20:17 -4.4 °C -9.6 °C 34462.7 hPa NE 18.2 km/h 38.8 km/h 56 % 0 mm
20:22 -4.5 °C -9.5 °C 34462.7 hPa NNE 18.2 km/h 38.8 km/h 57 % 0 mm
20:32 -4.6 °C -9.8 °C 34462.7 hPa NNE 15.6 km/h 38.8 km/h 56 % 0 mm
20:42 -4.8 °C -10.1 °C 34462.7 hPa NE 20.8 km/h 38.8 km/h 55 % 0 mm
20:47 -4.8 °C -10 °C 34462.7 hPa NNE 28.5 km/h 36.2 km/h 56 % 0 mm
20:52 -4.9 °C -10.1 °C 34462.7 hPa NNE 15.6 km/h 36.2 km/h 56 % 0 mm
20:57 -5 °C -10.2 °C 34462.7 hPa NNE 20.8 km/h 31.1 km/h 56 % 0 mm
21:02 -5.1 °C -10.2 °C 34462.7 hPa North 33.6 km/h 33.6 km/h 56 % 0 mm
21:07 -5.2 °C -10.2 °C 34462.7 hPa ENE 7.7 km/h 28.5 km/h 57 % 0 mm
21:12 -5.3 °C -10.3 °C 34462.7 hPa NNE 5.1 km/h 28.5 km/h 57 % 0 mm
21:17 -5.4 °C -10.4 °C 34462.7 hPa North 23.3 km/h 33.6 km/h 57 % 0 mm
21:22 -5.6 °C -10.3 °C 34462.7 hPa NNE 10.3 km/h 33.6 km/h 58 % 0 mm
21:32 -5.9 °C -10.5 °C 34462.7 hPa NE 12.9 km/h 25.9 km/h 59 % 0 mm
21:47 -6.1 °C -10.4 °C 34462.7 hPa NNE 2.6 km/h 15.6 km/h 61 % 0 mm
21:52 -6.3 °C -10.3 °C 34462.7 hPa NNE 7.7 km/h 15.6 km/h 63 % 0 mm
21:57 -6.5 °C -10.4 °C 34462.7 hPa NNE 12.9 km/h 20.8 km/h 64 % 0 mm
22:02 -6.6 °C -10.4 °C 34462.7 hPa NNE 10.3 km/h 20.8 km/h 65 % 0 mm
22:12 -6.8 °C -10.6 °C 34476.3 hPa NNE 12.9 km/h 20.8 km/h 65 % 0 mm
22:17 -6.9 °C -10.7 °C 34476.3 hPa NE 20.8 km/h 23.3 km/h 65 % 0 mm
22:22 -6.9 °C -10.7 °C 34476.3 hPa NE 10.3 km/h 23.3 km/h 65 % 0 mm
22:32 -6.9 °C -10.7 °C 34476.3 hPa NNE 7.7 km/h 28.5 km/h 65 % 0 mm
22:37 -7 °C -10.7 °C 34476.3 hPa NE 7.7 km/h 23.3 km/h 65 % 0 mm
22:42 -7.1 °C -10.7 °C 34476.3 hPa NNE 10.3 km/h 23.3 km/h 66 % 0 mm
22:47 -7.1 °C -10.7 °C 34476.3 hPa NE 12.9 km/h 23.3 km/h 66 % 0 mm
22:52 -7.2 °C -10.8 °C 34486.4 hPa NNE 10.3 km/h 20.8 km/h 66 % 0 mm
22:57 -7.1 °C -10.7 °C 34486.4 hPa NE 10.3 km/h 20.8 km/h 66 % 0 mm
23:02 -7.2 °C -10.7 °C 34486.4 hPa NE 10.3 km/h 20.8 km/h 67 % 0 mm
23:12 -7.4 °C -10.7 °C 34486.4 hPa NNE 10.3 km/h 20.8 km/h 68 % 0 mm
23:22 -7.6 °C -10.8 °C 34486.4 hPa NNE 5.1 km/h 20.8 km/h 69 % 0 mm
23:27 -7.7 °C -10.8 °C 34486.4 hPa NNW 2.6 km/h 18.2 km/h 70 % 0 mm
23:32 -7.8 °C -10.8 °C 34476.3 hPa NNE 2.6 km/h 18.2 km/h 71 % 0 mm
23:37 -7.9 °C -10.8 °C 34486.4 hPa NE 2.6 km/h 10.3 km/h 71 % 0 mm
23:42 -7.9 °C -10.9 °C 34486.4 hPa Calm   10.3 km/h 71 % 0 mm
23:47 -7.9 °C -10.8 °C 34486.4 hPa NE 5.1 km/h 10.3 km/h 71 % 0 mm
23:52 -7.8 °C -10.9 °C 34486.4 hPa NE 10.3 km/h 10.3 km/h 70 % 0 mm
Meteo18
Compliments of Weather Underground - 4 mb

Script developed by  Jim McMurry - jmcmurry@mwt.net Adapted for the template by  Wim van der Kuil - Leuven-Template.eu

You find our weather info also at:

European Weather Network

Weather Underground

Equipment we use:

Weather-station
Davis Vue

Weather-program
Meteobridge

Weather-server
Raspberry PI 2 B+

Provider
1 and 1

Davis Vue

Meteobridge

Raspberry PI 2 B+

1 and 1